sensor_id;sensor_type;location;lat;lon;timestamp;P1;durP1;ratioP1;P2;durP2;ratioP2
48795;SDS011;34607;48.520;-1.330;2023-04-23T07:56:50;2.13;;;1.05;;
48795;SDS011;34607;48.520;-1.330;2023-04-23T07:59:18;2.00;;;0.68;;
48795;SDS011;34607;48.520;-1.330;2023-04-23T08:01:45;3.78;;;0.98;;
48795;SDS011;34607;48.520;-1.330;2023-04-23T08:04:12;4.10;;;0.70;;
48795;SDS011;34607;48.520;-1.330;2023-04-23T08:06:39;2.67;;;0.70;;
48795;SDS011;34607;48.520;-1.330;2023-04-23T08:09:06;3.30;;;0.70;;
48795;SDS011;34607;48.520;-1.330;2023-04-23T08:11:34;2.15;;;0.95;;
48795;SDS011;34607;48.520;-1.330;2023-04-23T08:14:02;1.33;;;0.60;;
48795;SDS011;34607;48.520;-1.330;2023-04-23T08:16:30;2.47;;;0.40;;
48795;SDS011;34607;48.520;-1.330;2023-04-23T08:18:57;3.38;;;1.00;;
48795;SDS011;34607;48.520;-1.330;2023-04-23T08:21:24;3.22;;;0.55;;
48795;SDS011;34607;48.520;-1.330;2023-04-23T08:23:51;4.43;;;1.40;;
48795;SDS011;34607;48.520;-1.330;2023-04-23T08:26:18;5.53;;;0.90;;
48795;SDS011;34607;48.520;-1.330;2023-04-23T08:28:45;3.55;;;0.75;;
48795;SDS011;34607;48.520;-1.330;2023-04-23T08:31:14;3.03;;;1.80;;
48795;SDS011;34607;48.520;-1.330;2023-04-23T08:33:41;1.63;;;1.30;;
48795;SDS011;34607;48.520;-1.330;2023-04-23T08:36:08;3.25;;;1.10;;
48795;SDS011;34607;48.520;-1.330;2023-04-23T08:38:35;2.97;;;1.10;;
48795;SDS011;34607;48.520;-1.330;2023-04-23T08:41:04;1.50;;;1.13;;
48795;SDS011;34607;48.520;-1.330;2023-04-23T08:43:33;2.72;;;1.10;;
48795;SDS011;34607;48.520;-1.330;2023-04-23T08:46:10;6.07;;;2.00;;
48795;SDS011;34607;48.520;-1.330;2023-04-23T08:48:40;3.03;;;1.10;;
48795;SDS011;34607;48.520;-1.330;2023-04-23T08:51:09;1.65;;;1.10;;
48795;SDS011;34607;48.520;-1.330;2023-04-23T08:53:43;3.58;;;1.55;;
48795;SDS011;34607;48.520;-1.330;2023-04-23T08:58:38;4.13;;;1.92;;
48795;SDS011;34607;48.520;-1.330;2023-04-23T09:01:07;2.78;;;0.80;;
48795;SDS011;34607;48.520;-1.330;2023-04-23T09:03:35;3.60;;;0.82;;
48795;SDS011;34607;48.520;-1.330;2023-04-23T09:06:04;1.50;;;1.00;;
48795;SDS011;34607;48.520;-1.330;2023-04-23T09:08:32;1.83;;;0.70;;
48795;SDS011;34607;48.520;-1.330;2023-04-23T09:11:00;1.80;;;0.60;;
48795;SDS011;34607;48.520;-1.330;2023-04-23T09:13:28;3.67;;;1.10;;
48795;SDS011;34607;48.520;-1.330;2023-04-23T09:15:56;4.95;;;0.77;;
48795;SDS011;34607;48.520;-1.330;2023-04-23T09:18:23;4.53;;;0.95;;
48795;SDS011;34607;48.520;-1.330;2023-04-23T09:20:50;5.78;;;0.80;;
48795;SDS011;34607;48.520;-1.330;2023-04-23T09:23:21;4.47;;;0.80;;
48795;SDS011;34607;48.520;-1.330;2023-04-23T09:25:49;3.90;;;1.00;;
48795;SDS011;34607;48.520;-1.330;2023-04-23T09:28:16;3.83;;;1.08;;
48795;SDS011;34607;48.520;-1.330;2023-04-23T09:30:44;3.00;;;0.98;;
48795;SDS011;34607;48.520;-1.330;2023-04-23T09:33:11;5.43;;;1.17;;
48795;SDS011;34607;48.520;-1.330;2023-04-23T09:35:39;4.85;;;0.85;;
48795;SDS011;34607;48.520;-1.330;2023-04-23T09:38:07;5.65;;;1.40;;
48795;SDS011;34607;48.520;-1.330;2023-04-23T09:40:36;7.75;;;1.48;;
48795;SDS011;34607;48.520;-1.330;2023-04-23T09:43:03;6.30;;;0.90;;
48795;SDS011;34607;48.520;-1.330;2023-04-23T09:45:31;5.25;;;1.38;;
48795;SDS011;34607;48.520;-1.330;2023-04-23T09:47:59;6.30;;;1.67;;
48795;SDS011;34607;48.520;-1.330;2023-04-23T09:50:33;4.80;;;1.38;;
48795;SDS011;34607;48.520;-1.330;2023-04-23T09:53:02;8.90;;;0.80;;
48795;SDS011;34607;48.520;-1.330;2023-04-23T09:55:30;1.70;;;0.63;;
48795;SDS011;34607;48.520;-1.330;2023-04-23T09:58:01;2.63;;;0.95;;
48795;SDS011;34607;48.520;-1.330;2023-04-23T10:00:32;2.00;;;0.60;;
48795;SDS011;34607;48.520;-1.330;2023-04-23T10:03:00;2.35;;;0.70;;
48795;SDS011;34607;48.520;-1.330;2023-04-23T10:05:28;4.47;;;0.70;;
48795;SDS011;34607;48.520;-1.330;2023-04-23T10:07:55;1.17;;;0.70;;
48795;SDS011;34607;48.520;-1.330;2023-04-23T10:10:22;3.55;;;0.60;;
48795;SDS011;34607;48.520;-1.330;2023-04-23T10:12:50;2.53;;;0.85;;
48795;SDS011;34607;48.520;-1.330;2023-04-23T10:15:20;1.88;;;0.93;;
48795;SDS011;34607;48.520;-1.330;2023-04-23T10:17:49;4.22;;;0.85;;
48795;SDS011;34607;48.520;-1.330;2023-04-23T10:20:17;1.23;;;0.77;;
48795;SDS011;34607;48.520;-1.330;2023-04-23T10:22:46;2.03;;;0.90;;
48795;SDS011;34607;48.520;-1.330;2023-04-23T10:25:14;3.50;;;1.15;;
48795;SDS011;34607;48.520;-1.330;2023-04-23T10:27:42;1.77;;;0.77;;
48795;SDS011;34607;48.520;-1.330;2023-04-23T10:30:11;3.05;;;0.70;;
48795;SDS011;34607;48.520;-1.330;2023-04-23T10:32:40;5.03;;;0.70;;
48795;SDS011;34607;48.520;-1.330;2023-04-23T10:35:08;2.08;;;0.75;;
48795;SDS011;34607;48.520;-1.330;2023-04-23T10:37:35;1.50;;;0.60;;
48795;SDS011;34607;48.520;-1.330;2023-04-23T10:40:05;1.90;;;0.63;;
48795;SDS011;34607;48.520;-1.330;2023-04-23T10:42:36;2.17;;;0.75;;
48795;SDS011;34607;48.520;-1.330;2023-04-23T10:45:11;2.40;;;1.02;;
48795;SDS011;34607;48.520;-1.330;2023-04-23T10:47:42;3.63;;;0.98;;
48795;SDS011;34607;48.520;-1.330;2023-04-23T10:50:16;2.50;;;0.75;;
48795;SDS011;34607;48.520;-1.330;2023-04-23T10:52:45;3.83;;;1.02;;
48795;SDS011;34607;48.520;-1.330;2023-04-23T10:55:16;4.05;;;1.38;;
48795;SDS011;34607;48.520;-1.330;2023-04-23T10:57:53;5.53;;;1.27;;
48795;SDS011;34607;48.520;-1.330;2023-04-23T11:00:24;3.05;;;1.00;;
48795;SDS011;34607;48.520;-1.330;2023-04-23T11:02:53;3.22;;;1.27;;
48795;SDS011;34607;48.520;-1.330;2023-04-23T11:05:21;4.18;;;2.85;;
48795;SDS011;34607;48.520;-1.330;2023-04-23T11:08:02;3.33;;;1.20;;
48795;SDS011;34607;48.520;-1.330;2023-04-23T11:10:31;1.67;;;0.90;;
48795;SDS011;34607;48.520;-1.330;2023-04-23T11:15:48;5.97;;;4.28;;
48795;SDS011;34607;48.520;-1.330;2023-04-23T11:18:45;2.80;;;1.60;;
48795;SDS011;34607;48.520;-1.330;2023-04-23T11:21:20;2.28;;;1.48;;
48795;SDS011;34607;48.520;-1.330;2023-04-23T11:23:47;2.60;;;1.50;;
48795;SDS011;34607;48.520;-1.330;2023-04-23T11:26:14;5.03;;;1.30;;
48795;SDS011;34607;48.520;-1.330;2023-04-23T11:28:43;2.20;;;1.30;;
48795;SDS011;34607;48.520;-1.330;2023-04-23T11:31:11;3.25;;;1.85;;
48795;SDS011;34607;48.520;-1.330;2023-04-23T11:33:38;5.40;;;1.77;;
48795;SDS011;34607;48.520;-1.330;2023-04-23T11:36:07;3.80;;;1.80;;
48795;SDS011;34607;48.520;-1.330;2023-04-23T11:38:34;4.55;;;2.42;;
48795;SDS011;34607;48.520;-1.330;2023-04-23T11:41:01;5.32;;;2.92;;
48795;SDS011;34607;48.520;-1.330;2023-04-23T11:43:29;6.03;;;2.25;;
48795;SDS011;34607;48.520;-1.330;2023-04-23T11:45:56;5.97;;;2.60;;
48795;SDS011;34607;48.520;-1.330;2023-04-23T11:48:26;3.10;;;1.88;;
48795;SDS011;34607;48.520;-1.330;2023-04-23T11:50:53;4.18;;;2.45;;
48795;SDS011;34607;48.520;-1.330;2023-04-23T11:53:21;4.75;;;1.45;;
48795;SDS011;34607;48.520;-1.330;2023-04-23T11:55:49;3.78;;;1.90;;
48795;SDS011;34607;48.520;-1.330;2023-04-23T11:58:19;6.95;;;2.20;;
48795;SDS011;34607;48.520;-1.330;2023-04-23T12:00:46;6.03;;;2.60;;
48795;SDS011;34607;48.520;-1.330;2023-04-23T12:03:14;10.35;;;6.88;;
48795;SDS011;34607;48.520;-1.330;2023-04-23T12:05:43;11.07;;;7.97;;
48795;SDS011;34607;48.520;-1.330;2023-04-23T12:08:11;8.30;;;4.90;;
48795;SDS011;34607;48.520;-1.330;2023-04-23T12:10:42;4.70;;;1.80;;
48795;SDS011;34607;48.520;-1.330;2023-04-23T12:13:15;2.72;;;1.48;;
48795;SDS011;34607;48.520;-1.330;2023-04-23T12:15:44;4.15;;;2.88;;
48795;SDS011;34607;48.520;-1.330;2023-04-23T12:18:14;2.13;;;1.40;;
48795;SDS011;34607;48.520;-1.330;2023-04-23T12:20:42;1.73;;;0.80;;
48795;SDS011;34607;48.520;-1.330;2023-04-23T12:23:09;2.78;;;1.08;;
48795;SDS011;34607;48.520;-1.330;2023-04-23T12:25:38;2.10;;;1.15;;
48795;SDS011;34607;48.520;-1.330;2023-04-23T12:28:07;2.50;;;1.73;;
48795;SDS011;34607;48.520;-1.330;2023-04-23T12:30:41;2.42;;;0.80;;
48795;SDS011;34607;48.520;-1.330;2023-04-23T12:33:09;3.95;;;2.10;;
48795;SDS011;34607;48.520;-1.330;2023-04-23T12:35:37;4.07;;;2.28;;
48795;SDS011;34607;48.520;-1.330;2023-04-23T12:38:05;2.00;;;1.20;;
48795;SDS011;34607;48.520;-1.330;2023-04-23T12:40:32;2.45;;;1.92;;
48795;SDS011;34607;48.520;-1.330;2023-04-23T12:42:59;1.63;;;1.45;;
48795;SDS011;34607;48.520;-1.330;2023-04-23T12:45:35;3.35;;;1.48;;
48795;SDS011;34607;48.520;-1.330;2023-04-23T12:48:02;4.35;;;1.40;;
48795;SDS011;34607;48.520;-1.330;2023-04-23T12:50:30;3.00;;;1.02;;
48795;SDS011;34607;48.520;-1.330;2023-04-23T12:52:57;3.47;;;1.42;;
48795;SDS011;34607;48.520;-1.330;2023-04-23T12:55:24;4.63;;;2.47;;
48795;SDS011;34607;48.520;-1.330;2023-04-23T12:57:51;2.95;;;1.20;;
48795;SDS011;34607;48.520;-1.330;2023-04-23T13:00:18;3.40;;;1.27;;
48795;SDS011;34607;48.520;-1.330;2023-04-23T13:02:46;2.33;;;1.33;;
48795;SDS011;34607;48.520;-1.330;2023-04-23T13:05:13;3.65;;;1.88;;
48795;SDS011;34607;48.520;-1.330;2023-04-23T13:07:40;1.90;;;1.80;;
48795;SDS011;34607;48.520;-1.330;2023-04-23T13:10:08;4.90;;;1.88;;
48795;SDS011;34607;48.520;-1.330;2023-04-23T13:12:35;3.53;;;2.45;;
48795;SDS011;34607;48.520;-1.330;2023-04-23T13:15:03;5.45;;;2.60;;
48795;SDS011;34607;48.520;-1.330;2023-04-23T13:17:30;3.67;;;2.10;;
48795;SDS011;34607;48.520;-1.330;2023-04-23T13:19:59;3.58;;;2.90;;
48795;SDS011;34607;48.520;-1.330;2023-04-23T13:22:26;4.82;;;3.10;;
48795;SDS011;34607;48.520;-1.330;2023-04-23T13:24:54;5.20;;;2.83;;
48795;SDS011;34607;48.520;-1.330;2023-04-23T13:27:22;9.13;;;4.10;;
48795;SDS011;34607;48.520;-1.330;2023-04-23T13:29:50;4.70;;;3.92;;
48795;SDS011;34607;48.520;-1.330;2023-04-23T13:32:17;5.38;;;3.60;;
48795;SDS011;34607;48.520;-1.330;2023-04-23T13:34:44;4.85;;;3.53;;
48795;SDS011;34607;48.520;-1.330;2023-04-23T13:37:12;5.50;;;3.30;;
48795;SDS011;34607;48.520;-1.330;2023-04-23T13:39:39;5.47;;;3.95;;
48795;SDS011;34607;48.520;-1.330;2023-04-23T13:42:06;5.60;;;3.90;;
48795;SDS011;34607;48.520;-1.330;2023-04-23T13:44:33;4.35;;;3.95;;
48795;SDS011;34607;48.520;-1.330;2023-04-23T13:47:01;4.38;;;3.90;;
48795;SDS011;34607;48.520;-1.330;2023-04-23T13:49:28;4.85;;;3.63;;
48795;SDS011;34607;48.520;-1.330;2023-04-23T13:51:55;7.22;;;4.32;;
48795;SDS011;34607;48.520;-1.330;2023-04-23T13:54:26;7.80;;;5.10;;
48795;SDS011;34607;48.520;-1.330;2023-04-23T13:56:53;5.13;;;4.35;;
48795;SDS011;34607;48.520;-1.330;2023-04-23T13:59:21;6.32;;;5.25;;
48795;SDS011;34607;48.520;-1.330;2023-04-23T14:01:49;7.30;;;4.63;;
48795;SDS011;34607;48.520;-1.330;2023-04-23T14:04:16;6.43;;;5.68;;
48795;SDS011;34607;48.520;-1.330;2023-04-23T14:06:44;8.82;;;5.70;;
48795;SDS011;34607;48.520;-1.330;2023-04-23T14:09:11;8.95;;;5.85;;
48795;SDS011;34607;48.520;-1.330;2023-04-23T14:11:39;8.57;;;5.85;;
48795;SDS011;34607;48.520;-1.330;2023-04-23T14:14:06;5.07;;;4.32;;
48795;SDS011;34607;48.520;-1.330;2023-04-23T14:16:33;6.97;;;5.15;;
48795;SDS011;34607;48.520;-1.330;2023-04-23T14:19:00;9.25;;;7.38;;
48795;SDS011;34607;48.520;-1.330;2023-04-23T14:21:27;8.95;;;7.35;;
48795;SDS011;34607;48.520;-1.330;2023-04-23T14:23:55;17.63;;;12.15;;
48795;SDS011;34607;48.520;-1.330;2023-04-23T14:26:27;8.82;;;6.78;;
48795;SDS011;34607;48.520;-1.330;2023-04-23T14:29:07;6.07;;;5.43;;
48795;SDS011;34607;48.520;-1.330;2023-04-23T14:31:35;4.88;;;4.38;;
48795;SDS011;34607;48.520;-1.330;2023-04-23T14:34:03;5.63;;;4.97;;
48795;SDS011;34607;48.520;-1.330;2023-04-23T14:36:30;7.57;;;5.35;;
48795;SDS011;34607;48.520;-1.330;2023-04-23T14:38:57;6.15;;;4.65;;
48795;SDS011;34607;48.520;-1.330;2023-04-23T14:41:29;5.57;;;4.88;;
48795;SDS011;34607;48.520;-1.330;2023-04-23T14:43:57;7.65;;;4.85;;
48795;SDS011;34607;48.520;-1.330;2023-04-23T14:46:26;7.13;;;5.78;;
48795;SDS011;34607;48.520;-1.330;2023-04-23T14:48:53;6.57;;;5.15;;
48795;SDS011;34607;48.520;-1.330;2023-04-23T14:51:21;5.80;;;5.18;;
48795;SDS011;34607;48.520;-1.330;2023-04-23T14:53:49;8.32;;;5.43;;
48795;SDS011;34607;48.520;-1.330;2023-04-23T14:56:17;8.73;;;5.43;;
48795;SDS011;34607;48.520;-1.330;2023-04-23T14:58:44;6.07;;;5.47;;
48795;SDS011;34607;48.520;-1.330;2023-04-23T15:01:11;13.30;;;8.30;;
48795;SDS011;34607;48.520;-1.330;2023-04-23T15:03:39;8.45;;;6.63;;
48795;SDS011;34607;48.520;-1.330;2023-04-23T15:06:06;9.70;;;6.53;;
48795;SDS011;34607;48.520;-1.330;2023-04-23T15:08:33;8.85;;;6.47;;
48795;SDS011;34607;48.520;-1.330;2023-04-23T15:11:00;8.57;;;7.07;;
48795;SDS011;34607;48.520;-1.330;2023-04-23T15:13:30;8.05;;;7.25;;
48795;SDS011;34607;48.520;-1.330;2023-04-23T15:16:06;16.13;;;10.35;;
48795;SDS011;34607;48.520;-1.330;2023-04-23T15:18:35;11.00;;;8.55;;
48795;SDS011;34607;48.520;-1.330;2023-04-23T15:21:03;9.15;;;7.55;;
48795;SDS011;34607;48.520;-1.330;2023-04-23T15:23:30;9.10;;;6.70;;
48795;SDS011;34607;48.520;-1.330;2023-04-23T15:25:57;8.63;;;7.10;;
48795;SDS011;34607;48.520;-1.330;2023-04-23T15:28:24;8.43;;;6.75;;
48795;SDS011;34607;48.520;-1.330;2023-04-23T15:30:52;10.25;;;7.38;;
48795;SDS011;34607;48.520;-1.330;2023-04-23T15:33:19;10.57;;;7.00;;
48795;SDS011;34607;48.520;-1.330;2023-04-23T15:35:46;8.15;;;7.03;;
48795;SDS011;34607;48.520;-1.330;2023-04-23T15:38:16;12.15;;;7.40;;
48795;SDS011;34607;48.520;-1.330;2023-04-23T15:40:44;9.60;;;7.43;;
48795;SDS011;34607;48.520;-1.330;2023-04-23T15:43:11;8.73;;;7.35;;
48795;SDS011;34607;48.520;-1.330;2023-04-23T15:45:38;9.90;;;7.10;;
48795;SDS011;34607;48.520;-1.330;2023-04-23T15:48:06;10.15;;;7.53;;
48795;SDS011;34607;48.520;-1.330;2023-04-23T15:50:33;9.82;;;7.03;;
48795;SDS011;34607;48.520;-1.330;2023-04-23T15:53:01;11.65;;;7.88;;
48795;SDS011;34607;48.520;-1.330;2023-04-23T15:55:29;9.95;;;7.93;;
48795;SDS011;34607;48.520;-1.330;2023-04-23T15:57:58;9.32;;;7.93;;
48795;SDS011;34607;48.520;-1.330;2023-04-23T16:00:26;10.43;;;8.13;;
48795;SDS011;34607;48.520;-1.330;2023-04-23T16:02:53;9.38;;;8.05;;
48795;SDS011;34607;48.520;-1.330;2023-04-23T16:05:20;11.38;;;9.10;;
48795;SDS011;34607;48.520;-1.330;2023-04-23T16:07:47;10.95;;;8.68;;
48795;SDS011;34607;48.520;-1.330;2023-04-23T16:10:14;12.10;;;9.23;;
48795;SDS011;34607;48.520;-1.330;2023-04-23T16:12:43;10.70;;;9.07;;
48795;SDS011;34607;48.520;-1.330;2023-04-23T16:15:12;20.90;;;14.57;;
48795;SDS011;34607;48.520;-1.330;2023-04-23T16:17:39;13.00;;;10.40;;
48795;SDS011;34607;48.520;-1.330;2023-04-23T16:20:06;15.32;;;9.48;;
48795;SDS011;34607;48.520;-1.330;2023-04-23T16:22:34;14.18;;;9.35;;
48795;SDS011;34607;48.520;-1.330;2023-04-23T16:25:01;14.00;;;11.23;;
48795;SDS011;34607;48.520;-1.330;2023-04-23T16:27:28;12.80;;;10.35;;
48795;SDS011;34607;48.520;-1.330;2023-04-23T16:29:57;16.55;;;12.68;;
48795;SDS011;34607;48.520;-1.330;2023-04-23T16:32:24;13.50;;;12.07;;
48795;SDS011;34607;48.520;-1.330;2023-04-23T16:34:51;13.18;;;10.95;;
48795;SDS011;34607;48.520;-1.330;2023-04-23T16:37:18;17.10;;;15.27;;
48795;SDS011;34607;48.520;-1.330;2023-04-23T16:39:45;31.88;;;28.00;;
48795;SDS011;34607;48.520;-1.330;2023-04-23T16:42:12;16.75;;;14.55;;
48795;SDS011;34607;48.520;-1.330;2023-04-23T16:44:39;13.98;;;11.20;;
48795;SDS011;34607;48.520;-1.330;2023-04-23T16:47:07;11.38;;;10.10;;
48795;SDS011;34607;48.520;-1.330;2023-04-23T16:49:34;12.43;;;9.27;;
48795;SDS011;34607;48.520;-1.330;2023-04-23T16:52:01;14.52;;;12.48;;
48795;SDS011;34607;48.520;-1.330;2023-04-23T16:54:28;16.42;;;11.95;;
48795;SDS011;34607;48.520;-1.330;2023-04-23T16:56:56;15.90;;;13.90;;
48795;SDS011;34607;48.520;-1.330;2023-04-23T16:59:23;15.60;;;11.90;;
48795;SDS011;34607;48.520;-1.330;2023-04-23T17:01:51;19.80;;;16.77;;
48795;SDS011;34607;48.520;-1.330;2023-04-23T17:04:19;13.07;;;10.77;;
48795;SDS011;34607;48.520;-1.330;2023-04-23T17:06:46;15.25;;;10.65;;
48795;SDS011;34607;48.520;-1.330;2023-04-23T17:09:13;13.48;;;10.82;;
48795;SDS011;34607;48.520;-1.330;2023-04-23T17:11:40;11.07;;;7.95;;
48795;SDS011;34607;48.520;-1.330;2023-04-23T17:14:07;13.82;;;11.93;;
48795;SDS011;34607;48.520;-1.330;2023-04-23T17:16:36;16.17;;;12.15;;
48795;SDS011;34607;48.520;-1.330;2023-04-23T17:19:03;23.50;;;17.42;;
48795;SDS011;34607;48.520;-1.330;2023-04-23T17:21:31;21.33;;;17.33;;
48795;SDS011;34607;48.520;-1.330;2023-04-23T17:23:58;21.90;;;15.75;;
48795;SDS011;34607;48.520;-1.330;2023-04-23T17:26:26;15.82;;;12.10;;
48795;SDS011;34607;48.520;-1.330;2023-04-23T17:28:53;11.55;;;10.35;;
48795;SDS011;34607;48.520;-1.330;2023-04-23T17:31:21;12.23;;;10.60;;
48795;SDS011;34607;48.520;-1.330;2023-04-23T17:33:48;14.95;;;11.27;;
48795;SDS011;34607;48.520;-1.330;2023-04-23T17:36:15;14.05;;;12.55;;
48795;SDS011;34607;48.520;-1.330;2023-04-23T17:38:43;12.77;;;10.63;;
48795;SDS011;34607;48.520;-1.330;2023-04-23T17:41:10;22.33;;;18.40;;
48795;SDS011;34607;48.520;-1.330;2023-04-23T17:43:37;8.32;;;7.50;;
48795;SDS011;34607;48.520;-1.330;2023-04-23T17:46:05;15.55;;;12.82;;
48795;SDS011;34607;48.520;-1.330;2023-04-23T17:48:32;7.80;;;4.82;;
48795;SDS011;34607;48.520;-1.330;2023-04-23T17:50:59;6.63;;;4.82;;
48795;SDS011;34607;48.520;-1.330;2023-04-23T17:53:26;7.93;;;4.57;;
48795;SDS011;34607;48.520;-1.330;2023-04-23T17:55:55;8.98;;;5.47;;
48795;SDS011;34607;48.520;-1.330;2023-04-23T17:58:26;9.82;;;4.38;;
48795;SDS011;34607;48.520;-1.330;2023-04-23T18:00:54;7.43;;;4.18;;
48795;SDS011;34607;48.520;-1.330;2023-04-23T18:03:21;11.23;;;5.20;;
48795;SDS011;34607;48.520;-1.330;2023-04-23T18:05:48;7.80;;;3.95;;
48795;SDS011;34607;48.520;-1.330;2023-04-23T18:08:16;10.52;;;3.97;;
48795;SDS011;34607;48.520;-1.330;2023-04-23T18:10:43;11.18;;;4.38;;
48795;SDS011;34607;48.520;-1.330;2023-04-23T18:13:12;10.80;;;5.97;;
48795;SDS011;34607;48.520;-1.330;2023-04-23T18:15:39;9.57;;;5.07;;
48795;SDS011;34607;48.520;-1.330;2023-04-23T18:18:07;7.93;;;4.20;;
48795;SDS011;34607;48.520;-1.330;2023-04-23T18:20:34;25.27;;;12.88;;
48795;SDS011;34607;48.520;-1.330;2023-04-23T18:23:02;8.60;;;4.82;;
48795;SDS011;34607;48.520;-1.330;2023-04-23T18:25:30;11.07;;;6.22;;
48795;SDS011;34607;48.520;-1.330;2023-04-23T18:27:57;12.65;;;4.80;;
48795;SDS011;34607;48.520;-1.330;2023-04-23T18:30:26;12.52;;;5.43;;
48795;SDS011;34607;48.520;-1.330;2023-04-23T18:32:54;17.08;;;8.30;;
48795;SDS011;34607;48.520;-1.330;2023-04-23T18:35:34;15.82;;;6.40;;
48795;SDS011;34607;48.520;-1.330;2023-04-23T18:38:03;17.00;;;8.15;;
48795;SDS011;34607;48.520;-1.330;2023-04-23T18:40:32;13.10;;;6.45;;
48795;SDS011;34607;48.520;-1.330;2023-04-23T18:42:59;14.68;;;6.72;;
48795;SDS011;34607;48.520;-1.330;2023-04-23T18:45:27;14.63;;;7.07;;
48795;SDS011;34607;48.520;-1.330;2023-04-23T18:47:55;13.95;;;5.97;;
48795;SDS011;34607;48.520;-1.330;2023-04-23T18:50:29;21.98;;;11.48;;
48795;SDS011;34607;48.520;-1.330;2023-04-23T18:53:01;13.80;;;6.20;;
48795;SDS011;34607;48.520;-1.330;2023-04-23T18:55:29;13.77;;;8.10;;
48795;SDS011;34607;48.520;-1.330;2023-04-23T18:57:56;15.65;;;5.82;;
48795;SDS011;34607;48.520;-1.330;2023-04-23T19:00:23;30.85;;;17.25;;
48795;SDS011;34607;48.520;-1.330;2023-04-23T19:02:52;22.05;;;10.07;;
48795;SDS011;34607;48.520;-1.330;2023-04-23T19:05:19;15.07;;;8.38;;
48795;SDS011;34607;48.520;-1.330;2023-04-23T19:07:46;16.17;;;7.50;;
48795;SDS011;34607;48.520;-1.330;2023-04-23T19:10:13;14.63;;;6.20;;
48795;SDS011;34607;48.520;-1.330;2023-04-23T19:12:41;13.25;;;7.30;;
48795;SDS011;34607;48.520;-1.330;2023-04-23T19:15:09;15.00;;;5.80;;
48795;SDS011;34607;48.520;-1.330;2023-04-23T19:17:38;25.73;;;11.68;;
48795;SDS011;34607;48.520;-1.330;2023-04-23T19:20:07;12.38;;;6.03;;
48795;SDS011;34607;48.520;-1.330;2023-04-23T19:22:37;11.30;;;4.72;;
48795;SDS011;34607;48.520;-1.330;2023-04-23T19:25:06;14.20;;;6.22;;
48795;SDS011;34607;48.520;-1.330;2023-04-23T19:27:34;8.70;;;4.80;;
48795;SDS011;34607;48.520;-1.330;2023-04-23T19:30:01;14.90;;;6.55;;
48795;SDS011;34607;48.520;-1.330;2023-04-23T19:32:29;9.95;;;4.25;;
48795;SDS011;34607;48.520;-1.330;2023-04-23T19:34:58;13.35;;;6.05;;
48795;SDS011;34607;48.520;-1.330;2023-04-23T19:37:26;18.25;;;8.52;;
48795;SDS011;34607;48.520;-1.330;2023-04-23T19:39:54;12.88;;;7.60;;
48795;SDS011;34607;48.520;-1.330;2023-04-23T19:42:21;14.00;;;4.80;;
48795;SDS011;34607;48.520;-1.330;2023-04-23T19:44:48;13.35;;;4.90;;
48795;SDS011;34607;48.520;-1.330;2023-04-23T19:47:15;12.13;;;5.80;;
48795;SDS011;34607;48.520;-1.330;2023-04-23T19:49:42;10.90;;;4.68;;
48795;SDS011;34607;48.520;-1.330;2023-04-23T19:52:09;7.28;;;3.63;;
48795;SDS011;34607;48.520;-1.330;2023-04-23T19:54:42;12.25;;;5.28;;
48795;SDS011;34607;48.520;-1.330;2023-04-23T19:57:13;11.48;;;5.40;;
48795;SDS011;34607;48.520;-1.330;2023-04-23T19:59:40;7.03;;;3.92;;
48795;SDS011;34607;48.520;-1.330;2023-04-23T20:02:07;10.77;;;5.30;;
48795;SDS011;34607;48.520;-1.330;2023-04-23T20:04:34;6.72;;;3.75;;
48795;SDS011;34607;48.520;-1.330;2023-04-23T20:07:01;13.20;;;6.00;;
48795;SDS011;34607;48.520;-1.330;2023-04-23T20:09:28;15.20;;;5.75;;
48795;SDS011;34607;48.520;-1.330;2023-04-23T20:11:57;30.75;;;18.23;;
48795;SDS011;34607;48.520;-1.330;2023-04-23T20:14:25;10.60;;;4.38;;
48795;SDS011;34607;48.520;-1.330;2023-04-23T20:16:53;10.07;;;4.80;;
48795;SDS011;34607;48.520;-1.330;2023-04-23T20:19:20;10.23;;;4.75;;
48795;SDS011;34607;48.520;-1.330;2023-04-23T20:21:50;14.93;;;4.20;;
48795;SDS011;34607;48.520;-1.330;2023-04-23T20:24:17;9.38;;;4.82;;
48795;SDS011;34607;48.520;-1.330;2023-04-23T20:26:45;11.75;;;4.30;;
48795;SDS011;34607;48.520;-1.330;2023-04-23T20:29:14;18.23;;;6.25;;
48795;SDS011;34607;48.520;-1.330;2023-04-23T20:31:41;13.20;;;4.95;;
48795;SDS011;34607;48.520;-1.330;2023-04-23T20:34:12;12.75;;;4.78;;
48795;SDS011;34607;48.520;-1.330;2023-04-23T20:36:40;11.60;;;4.80;;
48795;SDS011;34607;48.520;-1.330;2023-04-23T20:39:07;16.23;;;6.30;;
48795;SDS011;34607;48.520;-1.330;2023-04-23T20:41:35;40.97;;;21.63;;
48795;SDS011;34607;48.520;-1.330;2023-04-23T20:44:03;9.05;;;3.65;;
48795;SDS011;34607;48.520;-1.330;2023-04-23T20:46:31;14.50;;;6.68;;
48795;SDS011;34607;48.520;-1.330;2023-04-23T20:49:00;12.18;;;4.57;;
48795;SDS011;34607;48.520;-1.330;2023-04-23T20:51:28;7.75;;;3.60;;
48795;SDS011;34607;48.520;-1.330;2023-04-23T20:53:58;10.55;;;4.05;;
48795;SDS011;34607;48.520;-1.330;2023-04-23T20:56:26;9.05;;;3.70;;
48795;SDS011;34607;48.520;-1.330;2023-04-23T20:58:53;7.60;;;3.38;;
48795;SDS011;34607;48.520;-1.330;2023-04-23T21:01:21;7.35;;;3.58;;
48795;SDS011;34607;48.520;-1.330;2023-04-23T21:03:50;10.10;;;4.32;;
48795;SDS011;34607;48.520;-1.330;2023-04-23T21:06:18;11.82;;;3.95;;
48795;SDS011;34607;48.520;-1.330;2023-04-23T21:08:46;10.70;;;3.17;;
48795;SDS011;34607;48.520;-1.330;2023-04-23T21:11:14;10.50;;;4.85;;
48795;SDS011;34607;48.520;-1.330;2023-04-23T21:13:42;12.52;;;4.53;;
48795;SDS011;34607;48.520;-1.330;2023-04-23T21:16:09;10.00;;;4.00;;
48795;SDS011;34607;48.520;-1.330;2023-04-23T21:18:36;10.35;;;4.65;;
48795;SDS011;34607;48.520;-1.330;2023-04-23T21:21:05;10.38;;;3.20;;
48795;SDS011;34607;48.520;-1.330;2023-04-23T21:23:32;7.80;;;3.80;;
48795;SDS011;34607;48.520;-1.330;2023-04-23T21:25:59;8.27;;;2.83;;
48795;SDS011;34607;48.520;-1.330;2023-04-23T21:28:26;5.82;;;2.83;;
48795;SDS011;34607;48.520;-1.330;2023-04-23T21:30:53;7.45;;;2.85;;
48795;SDS011;34607;48.520;-1.330;2023-04-23T21:33:22;9.02;;;3.20;;
48795;SDS011;34607;48.520;-1.330;2023-04-23T21:35:51;5.95;;;2.80;;
48795;SDS011;34607;48.520;-1.330;2023-04-23T21:38:20;8.35;;;3.55;;
